Brant, New York
Current Conditions -  °F | °C
As of 7:53 AM on Wednesday 22 Oct 2014 (Local Time) from KDKK Reporting Station
Overcast Overcast  
Wind Chill: 40°   Ceiling: 1600
Heat Index: 46°   Visibility: 10mi
Dew Point: 41°   Wind: 13mph
Humidity: 83%   Direction: 20°NNE
Pressure: 30.19"   Gusts: NA
Location:  42.59°N, 79.02°W
Report Text: KDKK 221153Z AUTO 02011KT 10SM OVC016 08/05 A3019 RMK AO2 SLP226 60000 70005 T00780050 10083 20072 52018
Loading
Personal Weather Stations






























Interactive Weather Map
Tropical Storm Tracking
New forecast layout! Learn more

10-Day Weather Forecast

Advertisements
Track Severe Weather on mobile